createdAt,value
2019-03-05T00:01:22.084Z,71.40
2019-03-05T00:03:52.946Z,72.30
2019-03-05T00:06:23.659Z,73.40
2019-03-05T00:08:54.739Z,75.70
2019-03-05T00:11:25.711Z,76.90
2019-03-05T00:13:56.671Z,77.30
2019-03-05T00:16:27.371Z,77.70
2019-03-05T00:18:58.111Z,77.70
2019-03-05T00:21:29.328Z,78.00
2019-03-05T00:24:35.989Z,78.30
2019-03-05T00:27:06.837Z,78.70
2019-03-05T00:30:20.219Z,79.00
2019-03-05T00:32:58.206Z,79.10
2019-03-05T00:35:40.787Z,79.10
2019-03-05T00:38:20.037Z,79.20
2019-03-05T00:41:12.093Z,79.40
2019-03-05T00:43:53.116Z,80.30
2019-03-05T00:47:05.293Z,82.10
2019-03-05T00:50:03.203Z,82.20
2019-03-05T00:52:46.120Z,83.20
2019-03-05T00:55:40.451Z,84.20
2019-03-05T00:59:01.671Z,85.10
2019-03-05T01:02:10.972Z,85.50
2019-03-05T01:05:20.382Z,86.50
2019-03-05T01:07:51.260Z,87.50
2019-03-05T01:10:23.497Z,88.70
2019-03-05T01:12:55.017Z,88.40
2019-03-05T01:15:26.248Z,89.00
2019-03-05T01:17:57.016Z,89.10
2019-03-05T01:20:27.759Z,89.20
2019-03-05T01:22:58.476Z,90.30
2019-03-05T01:25:32.312Z,90.60
2019-03-05T01:28:03.358Z,90.60
2019-03-05T01:30:48.736Z,90.80
2019-03-05T01:33:19.677Z,90.80
2019-03-05T01:36:03.703Z,91.10
2019-03-05T01:38:42.748Z,90.70
2019-03-05T01:41:13.924Z,90.80
2019-03-05T01:43:44.935Z,90.60
2019-03-05T01:46:15.631Z,90.40
2019-03-05T01:48:46.568Z,90.40
2019-03-05T01:51:17.637Z,90.30
2019-03-05T01:53:48.808Z,90.20
2019-03-05T01:56:19.470Z,89.80
2019-03-05T01:58:50.235Z,89.80
2019-03-05T02:01:21.239Z,89.30
2019-03-05T02:03:51.942Z,89.60
2019-03-05T02:06:22.711Z,89.20
2019-03-05T02:08:53.413Z,89.60
2019-03-05T02:11:24.249Z,89.70
2019-03-05T02:13:55.005Z,89.80
2019-03-05T02:16:25.739Z,89.60
2019-03-05T02:19:35.327Z,89.20
2019-03-05T02:22:08.641Z,89.30
2019-03-05T02:25:29.726Z,88.90
2019-03-05T02:28:50.545Z,88.40
2019-03-05T02:32:11.625Z,87.60
2019-03-05T02:35:00.578Z,88.00
2019-03-05T02:38:05.477Z,87.20
2019-03-05T02:41:01.331Z,87.20
2019-03-05T02:43:59.279Z,87.30
2019-03-05T02:47:17.042Z,87.20
2019-03-05T02:50:27.608Z,87.60
2019-03-05T02:53:23.195Z,87.00
2019-03-05T02:56:28.099Z,87.20
2019-03-05T02:58:57.455Z,86.70
2019-03-05T03:01:47.286Z,86.70
2019-03-05T03:04:20.854Z,86.70
2019-03-05T03:06:51.744Z,86.00
2019-03-05T03:10:06.718Z,86.10
2019-03-05T03:12:37.531Z,86.20
2019-03-05T03:15:19.619Z,85.40
2019-03-05T03:17:51.026Z,85.90
2019-03-05T03:20:23.333Z,85.90
2019-03-05T03:22:54.637Z,86.20
2019-03-05T03:25:25.514Z,85.70
2019-03-05T03:27:56.387Z,86.10
2019-03-05T03:30:28.533Z,86.40
2019-03-05T03:32:59.677Z,85.60
2019-03-05T03:35:30.544Z,85.70
2019-03-05T03:38:01.730Z,85.10
2019-03-05T03:40:32.864Z,84.60
2019-03-05T03:43:03.610Z,84.00
2019-03-05T03:45:34.637Z,83.90
2019-03-05T03:48:05.487Z,83.40
2019-03-05T03:50:36.254Z,83.00
2019-03-05T03:53:07.170Z,82.80
2019-03-05T03:55:37.961Z,82.40
2019-03-05T03:58:09.008Z,82.30
2019-03-05T04:00:40.041Z,81.60
2019-03-05T04:03:10.745Z,81.40
2019-03-05T04:05:41.538Z,81.30
2019-03-05T04:08:12.349Z,81.20
2019-03-05T04:10:42.997Z,81.30
2019-03-05T04:13:13.777Z,82.20
2019-03-05T04:15:44.705Z,81.50
2019-03-05T04:18:15.536Z,82.00
2019-03-05T04:20:52.222Z,81.90
2019-03-05T04:23:22.895Z,82.00
2019-03-05T04:25:54.056Z,81.60
2019-03-05T04:28:24.752Z,81.60
2019-03-05T04:30:55.514Z,81.70
2019-03-05T04:33:26.365Z,81.50
2019-03-05T04:35:57.076Z,81.90
2019-03-05T04:38:27.877Z,81.20
2019-03-05T04:40:58.569Z,81.10
2019-03-05T04:43:29.312Z,81.50
2019-03-05T04:46:28.110Z,81.70
2019-03-05T04:49:16.600Z,81.60
2019-03-05T04:51:51.224Z,82.10
2019-03-05T04:54:21.994Z,82.50
2019-03-05T04:56:53.004Z,82.60
2019-03-05T04:59:23.705Z,82.50
2019-03-05T05:01:54.732Z,84.50
2019-03-05T05:04:25.454Z,85.40
2019-03-05T05:06:56.215Z,85.80
2019-03-05T05:09:26.912Z,85.70
2019-03-05T05:11:57.675Z,85.10
2019-03-05T05:14:28.472Z,85.00
2019-03-05T05:16:59.174Z,84.70
2019-03-05T05:19:29.993Z,84.00
2019-03-05T05:22:00.834Z,84.00
2019-03-05T05:24:31.553Z,83.50
2019-03-05T05:27:02.231Z,82.80
2019-03-05T05:29:33.039Z,82.20
2019-03-05T05:32:03.971Z,81.60
2019-03-05T05:34:34.708Z,81.70
2019-03-05T05:37:05.561Z,81.90
2019-03-05T05:40:12.132Z,82.10
2019-03-05T05:42:42.890Z,81.50
2019-03-05T05:45:15.689Z,80.90
2019-03-05T05:47:46.696Z,80.90
2019-03-05T05:50:17.482Z,80.60
2019-03-05T05:52:49.102Z,79.70
2019-03-05T05:55:20.120Z,79.30
2019-03-05T05:57:50.925Z,78.70
2019-03-05T06:00:21.688Z,79.00
2019-03-05T06:02:52.492Z,79.10
2019-03-05T06:05:23.851Z,79.00
2019-03-05T06:07:54.512Z,79.40
2019-03-05T06:10:26.012Z,79.10
2019-03-05T06:12:57.041Z,79.10
2019-03-05T06:15:27.680Z,79.20
2019-03-05T06:17:59.052Z,79.10
2019-03-05T06:20:29.807Z,78.90
2019-03-05T06:23:00.847Z,78.50
2019-03-05T06:25:31.923Z,78.80
2019-03-05T06:28:02.920Z,78.60
2019-03-05T06:30:34.245Z,79.00
2019-03-05T06:33:05.168Z,78.80
2019-03-05T06:35:36.203Z,79.40
2019-03-05T06:38:07.166Z,79.40
2019-03-05T06:40:38.012Z,79.90
2019-03-05T06:43:08.844Z,79.60
2019-03-05T06:45:39.970Z,79.50
2019-03-05T06:48:11.285Z,79.30
2019-03-05T06:50:41.952Z,78.60
2019-03-05T06:53:12.693Z,77.50
2019-03-05T06:55:43.322Z,74.40
2019-03-05T06:58:14.322Z,69.50
2019-03-05T07:00:45.017Z,70.00
2019-03-05T07:03:15.792Z,70.60
2019-03-05T07:06:22.504Z,71.80
2019-03-05T07:09:55.576Z,72.50
2019-03-05T07:12:48.765Z,73.40
2019-03-05T07:16:03.931Z,72.10
2019-03-05T07:18:44.944Z,71.30
2019-03-05T07:21:57.967Z,70.80
2019-03-05T07:24:41.108Z,70.70
2019-03-05T07:27:12.032Z,71.20
2019-03-05T07:29:42.832Z,71.40
2019-03-05T07:32:13.637Z,71.40
2019-03-05T07:34:46.383Z,71.10
2019-03-05T07:37:17.192Z,70.00
2019-03-05T07:39:47.868Z,68.00
2019-03-05T07:42:18.580Z,66.10
2019-03-05T07:44:49.224Z,61.00
2019-03-05T07:47:19.998Z,56.80
2019-03-05T07:49:50.655Z,52.70
2019-03-05T07:52:21.377Z,54.00
2019-03-05T07:54:52.609Z,56.80
2019-03-05T07:57:23.443Z,56.70
2019-03-05T07:59:55.348Z,53.20
2019-03-05T08:02:25.993Z,47.10
2019-03-05T08:04:56.688Z,39.00
2019-03-05T08:07:27.350Z,36.30
2019-03-05T08:10:02.884Z,40.10
2019-03-05T08:13:04.344Z,43.90
2019-03-05T08:16:06.739Z,47.60
2019-03-05T08:18:37.551Z,52.30
2019-03-05T08:21:08.437Z,56.50
2019-03-05T08:23:39.152Z,58.70
2019-03-05T08:26:09.852Z,59.70
2019-03-05T08:28:40.607Z,62.40
2019-03-05T08:31:11.678Z,63.70
2019-03-05T08:33:43.040Z,64.20
2019-03-05T08:36:13.759Z,64.80
2019-03-05T08:38:44.508Z,64.50
2019-03-05T08:41:15.240Z,64.20
2019-03-05T08:43:45.924Z,60.10
2019-03-05T08:46:18.692Z,55.70
2019-03-05T08:48:51.813Z,53.10
2019-03-05T08:51:22.699Z,52.00
2019-03-05T08:53:53.376Z,53.00
2019-03-05T08:56:24.181Z,55.10
2019-03-05T08:58:54.918Z,58.10
2019-03-05T09:01:25.922Z,59.20
2019-03-05T09:03:56.666Z,55.10
2019-03-05T09:06:27.339Z,52.00
2019-03-05T09:08:58.248Z,48.00
2019-03-05T09:11:29.368Z,48.90
2019-03-05T09:14:00.337Z,51.90
2019-03-05T09:16:30.968Z,52.70
2019-03-05T09:19:01.658Z,53.20
2019-03-05T09:21:32.370Z,45.10
2019-03-05T09:24:03.296Z,39.90
2019-03-05T09:26:34.373Z,37.30
2019-03-05T09:29:05.324Z,39.20
2019-03-05T09:31:36.044Z,43.10
2019-03-05T09:34:06.749Z,46.70
2019-03-05T09:36:37.763Z,49.30
2019-03-05T09:39:11.227Z,51.30
2019-03-05T09:41:41.980Z,53.20
2019-03-05T09:44:12.979Z,54.90
2019-03-05T09:46:43.720Z,55.10
2019-03-05T09:49:14.915Z,57.30
2019-03-05T09:51:45.769Z,58.20
2019-03-05T09:54:16.499Z,59.10
2019-03-05T09:56:47.469Z,59.50
2019-03-05T09:59:18.116Z,61.60
2019-03-05T10:01:51.846Z,62.90
2019-03-05T10:04:22.573Z,63.00
2019-03-05T10:06:53.656Z,64.00
2019-03-05T10:09:25.925Z,63.40
2019-03-05T10:11:57.088Z,63.00
2019-03-05T10:14:27.841Z,63.10
2019-03-05T10:16:58.521Z,63.40
2019-03-05T10:19:29.548Z,63.70
2019-03-05T10:22:01.663Z,66.50
2019-03-05T10:24:32.457Z,67.20
2019-03-05T10:27:03.159Z,66.60
2019-03-05T10:29:34.480Z,65.20
2019-03-05T10:32:06.624Z,64.30
2019-03-05T10:34:37.884Z,62.80
2019-03-05T10:37:13.729Z,61.20
2019-03-05T10:39:41.374Z,59.50
2019-03-05T10:42:12.564Z,58.40
2019-03-05T10:44:43.321Z,57.80
2019-03-05T10:47:14.268Z,58.10
2019-03-05T10:49:44.952Z,58.10
2019-03-05T10:52:17.409Z,57.10
2019-03-05T10:54:48.346Z,56.90
2019-03-05T10:57:19.132Z,56.20
2019-03-05T10:59:53.257Z,55.90
2019-03-05T11:02:24.889Z,55.90
2019-03-05T11:04:56.642Z,56.00
2019-03-05T11:07:30.847Z,55.80
2019-03-05T11:10:02.340Z,53.60
2019-03-05T11:12:36.418Z,49.80
2019-03-05T11:15:11.614Z,47.10
2019-03-05T11:17:42.350Z,46.50
2019-03-05T11:20:15.212Z,48.60
2019-03-05T11:22:46.926Z,45.60
2019-03-05T11:25:19.827Z,39.00
2019-03-05T11:27:50.809Z,34.80
2019-03-05T11:30:35.679Z,36.90
2019-03-05T11:32:58.388Z,40.60
2019-03-05T11:35:34.730Z,45.20
2019-03-05T11:38:06.274Z,50.90
2019-03-05T11:40:37.182Z,54.50
2019-03-05T11:43:09.965Z,57.30
2019-03-05T11:45:43.063Z,53.10
2019-03-05T11:48:14.466Z,51.30
2019-03-05T11:50:45.515Z,54.60
2019-03-05T11:53:16.392Z,62.90
2019-03-05T11:55:47.203Z,68.00
2019-03-05T11:58:17.920Z,68.40
2019-03-05T12:01:04.016Z,69.40
2019-03-05T12:03:35.584Z,67.40
2019-03-05T12:06:06.980Z,65.40
2019-03-05T12:08:37.899Z,65.10
2019-03-05T12:11:08.938Z,64.90
2019-03-05T12:13:39.780Z,64.10
2019-03-05T12:16:14.903Z,62.80
2019-03-05T12:18:45.665Z,62.30
2019-03-05T12:21:16.439Z,62.30
2019-03-05T12:23:48.245Z,59.90
2019-03-05T12:26:19.143Z,59.30
2019-03-05T12:28:49.816Z,61.10
2019-03-05T12:31:20.650Z,64.60
2019-03-05T12:33:53.131Z,70.50
2019-03-05T12:36:24.057Z,73.60
2019-03-05T12:38:54.700Z,76.90
2019-03-05T12:41:25.627Z,78.30
2019-03-05T12:43:56.360Z,78.90
2019-03-05T12:46:27.324Z,79.30
2019-03-05T12:48:58.000Z,78.10
2019-03-05T12:51:29.103Z,75.80
2019-03-05T12:53:59.937Z,74.20
2019-03-05T12:56:31.141Z,72.50
2019-03-05T12:59:01.869Z,71.40
2019-03-05T13:01:34.877Z,69.50
2019-03-05T13:04:05.163Z,65.40
2019-03-05T13:06:35.913Z,65.20
2019-03-05T13:09:08.542Z,62.10
2019-03-05T13:11:39.641Z,62.10
2019-03-05T13:14:12.301Z,60.30
2019-03-05T13:16:43.265Z,59.20
2019-03-05T13:19:15.213Z,58.70
2019-03-05T13:21:48.487Z,57.30
2019-03-05T13:24:18.813Z,57.10
2019-03-05T13:26:49.706Z,57.20
2019-03-05T13:29:20.680Z,57.90
2019-03-05T13:31:51.781Z,57.60
2019-03-05T13:34:23.020Z,57.70
2019-03-05T13:36:54.254Z,57.00
2019-03-05T13:39:25.011Z,56.50
2019-03-05T13:41:55.788Z,57.10
2019-03-05T13:44:36.186Z,57.90
2019-03-05T13:47:08.744Z,58.80
2019-03-05T13:50:11.285Z,59.80
2019-03-05T13:53:22.647Z,59.50
2019-03-05T13:56:54.179Z,60.70
2019-03-05T13:59:46.219Z,61.30
2019-03-05T14:02:28.347Z,61.40
2019-03-05T14:05:11.016Z,60.80
2019-03-05T14:08:31.189Z,59.30
2019-03-05T14:11:02.073Z,59.40
2019-03-05T14:13:32.829Z,59.60
2019-03-05T14:16:05.798Z,59.90
2019-03-05T14:18:36.717Z,60.50
2019-03-05T14:21:08.455Z,58.70
2019-03-05T14:23:39.376Z,58.40
2019-03-05T14:26:10.359Z,57.60
2019-03-05T14:28:41.621Z,55.30
2019-03-05T14:31:12.301Z,55.00
2019-03-05T14:33:43.400Z,53.60
2019-03-05T14:36:14.140Z,53.50
2019-03-05T14:38:44.950Z,52.80
2019-03-05T14:41:15.845Z,52.90
2019-03-05T14:43:46.737Z,51.70
2019-03-05T14:46:17.717Z,51.50
2019-03-05T14:48:48.706Z,51.70
2019-03-05T14:51:19.587Z,51.30
2019-03-05T14:53:50.303Z,51.60
2019-03-05T14:56:21.034Z,52.10
2019-03-05T14:58:52.163Z,52.30
2019-03-05T15:01:22.929Z,52.70
2019-03-05T15:03:53.634Z,53.30
2019-03-05T15:06:27.246Z,52.90
2019-03-05T15:08:58.345Z,53.40
2019-03-05T15:11:29.230Z,53.70
2019-03-05T15:13:59.951Z,53.00
2019-03-05T15:16:30.740Z,52.70
2019-03-05T15:19:01.540Z,53.30
2019-03-05T15:21:32.383Z,53.40
2019-03-05T15:24:03.585Z,53.80
2019-03-05T15:26:34.538Z,54.60
2019-03-05T15:29:05.532Z,54.50
2019-03-05T15:31:36.392Z,55.20
2019-03-05T15:34:07.274Z,56.20
2019-03-05T15:36:40.157Z,56.60
2019-03-05T15:39:11.002Z,54.70
2019-03-05T15:41:45.781Z,54.20
2019-03-05T15:44:14.930Z,54.10
2019-03-05T15:46:47.336Z,54.50
2019-03-05T15:49:19.993Z,55.00
2019-03-05T15:51:51.126Z,55.30
2019-03-05T15:54:21.874Z,55.40
2019-03-05T15:56:52.753Z,56.30
2019-03-05T15:59:23.619Z,56.60
2019-03-05T16:01:54.437Z,57.20
2019-03-05T16:04:25.140Z,58.10
2019-03-05T16:06:55.819Z,58.40
2019-03-05T16:09:26.551Z,58.30
2019-03-05T16:11:57.342Z,58.30
2019-03-05T16:14:29.617Z,58.10
2019-03-05T16:17:00.503Z,57.50
2019-03-05T16:19:31.182Z,57.20
2019-03-05T16:22:02.001Z,57.20
2019-03-05T16:24:33.815Z,57.00
2019-03-05T16:27:05.436Z,57.20
2019-03-05T16:29:36.245Z,57.20
2019-03-05T16:32:17.204Z,56.90
2019-03-05T16:35:06.900Z,56.50
2019-03-05T16:37:57.762Z,56.50
2019-03-05T16:40:44.612Z,56.00
2019-03-05T16:43:27.047Z,56.90
2019-03-05T16:46:16.061Z,57.40
2019-03-05T16:49:05.012Z,58.50
2019-03-05T16:51:48.790Z,59.20
2019-03-05T16:54:40.575Z,59.70
2019-03-05T16:57:23.547Z,60.50
2019-03-05T17:00:13.464Z,60.20
2019-03-05T17:03:10.300Z,60.20
2019-03-05T17:06:18.545Z,60.50
2019-03-05T17:09:26.317Z,60.20
2019-03-05T17:11:57.754Z,60.60
2019-03-05T17:14:28.880Z,60.80
2019-03-05T17:16:59.753Z,61.40
2019-03-05T17:19:31.298Z,62.00
2019-03-05T17:22:02.755Z,62.60
2019-03-05T17:24:33.551Z,63.20
2019-03-05T17:27:04.396Z,63.60
2019-03-05T17:29:35.392Z,63.90
2019-03-05T17:32:06.161Z,64.50
2019-03-05T17:34:38.518Z,65.20
2019-03-05T17:37:09.583Z,65.60
2019-03-05T17:39:40.400Z,66.20
2019-03-05T17:42:13.552Z,66.50
2019-03-05T17:44:47.696Z,67.00
2019-03-05T17:47:19.323Z,67.00
2019-03-05T17:49:50.463Z,67.80
2019-03-05T17:52:23.128Z,67.60
2019-03-05T17:54:54.068Z,67.90
2019-03-05T17:57:27.839Z,68.00
2019-03-05T17:59:58.673Z,67.90
2019-03-05T18:02:29.836Z,67.30
2019-03-05T18:05:00.670Z,66.90
2019-03-05T18:07:31.336Z,66.30
2019-03-05T18:10:02.438Z,65.60
2019-03-05T18:12:33.145Z,65.20
2019-03-05T18:15:04.629Z,65.00
2019-03-05T18:17:35.334Z,65.40
2019-03-05T18:20:07.907Z,65.60
2019-03-05T18:22:38.973Z,65.60
2019-03-05T18:25:10.674Z,66.10
2019-03-05T18:27:42.696Z,66.30
2019-03-05T18:30:15.755Z,66.60
2019-03-05T18:32:46.949Z,66.70
2019-03-05T18:35:18.141Z,67.20
2019-03-05T18:37:48.745Z,67.60
2019-03-05T18:40:19.638Z,67.60
2019-03-05T18:42:50.507Z,67.90
2019-03-05T18:45:25.321Z,68.50
2019-03-05T18:47:56.639Z,69.30
2019-03-05T18:50:27.734Z,69.60
2019-03-05T18:53:00.506Z,69.90
2019-03-05T18:55:31.526Z,70.10
2019-03-05T18:58:02.712Z,70.10
2019-03-05T19:00:33.606Z,70.70
2019-03-05T19:03:05.201Z,70.50
2019-03-05T19:05:36.693Z,71.00
2019-03-05T19:08:07.449Z,71.10
2019-03-05T19:10:38.300Z,71.20
2019-03-05T19:13:11.066Z,71.30
2019-03-05T19:15:42.091Z,71.70
2019-03-05T19:18:12.888Z,72.10
2019-03-05T19:20:43.797Z,72.50
2019-03-05T19:23:15.567Z,73.40
2019-03-05T19:25:46.839Z,72.40
2019-03-05T19:28:20.750Z,72.60
2019-03-05T19:30:51.855Z,72.50
2019-03-05T19:33:22.729Z,72.40
2019-03-05T19:35:56.390Z,72.70
2019-03-05T19:38:27.242Z,72.60
2019-03-05T19:40:59.145Z,73.10
2019-03-05T19:43:30.085Z,73.00
2019-03-05T19:46:01.150Z,73.50
2019-03-05T19:48:34.999Z,73.70
2019-03-05T19:51:06.467Z,73.70
2019-03-05T19:53:39.213Z,73.90
2019-03-05T19:56:10.212Z,73.90
2019-03-05T19:58:41.425Z,74.50
2019-03-05T20:01:15.149Z,74.60
2019-03-05T20:03:48.163Z,75.10
2019-03-05T20:06:19.409Z,75.50
2019-03-05T20:08:50.942Z,75.50
2019-03-05T20:11:22.822Z,75.80
2019-03-05T20:13:56.162Z,76.10
2019-03-05T20:16:27.670Z,76.30
2019-03-05T20:18:58.499Z,76.20
2019-03-05T20:21:56.479Z,76.60
2019-03-05T20:24:27.392Z,76.90
2019-03-05T20:26:58.368Z,77.50
2019-03-05T20:29:32.157Z,77.70
2019-03-05T20:32:24.537Z,78.00
2019-03-05T20:34:56.264Z,77.80
2019-03-05T20:37:27.394Z,77.60
2019-03-05T20:40:02.860Z,77.80
2019-03-05T20:42:38.615Z,77.70
2019-03-05T20:45:13.103Z,78.00
2019-03-05T20:47:45.992Z,78.10
2019-03-05T20:50:19.465Z,78.10
2019-03-05T20:52:51.396Z,78.40
2019-03-05T20:55:22.496Z,78.50
2019-03-05T20:57:54.774Z,78.60
2019-03-05T21:00:29.180Z,78.50
2019-03-05T21:03:04.017Z,78.70
2019-03-05T21:05:36.890Z,79.30
2019-03-05T21:08:10.179Z,79.90
2019-03-05T21:10:40.971Z,80.00
2019-03-05T21:13:15.264Z,79.90
2019-03-05T21:15:45.817Z,79.90
2019-03-05T21:18:19.651Z,79.90
2019-03-05T21:20:52.126Z,79.70
2019-03-05T21:23:22.745Z,80.10
2019-03-05T21:25:57.410Z,80.50
2019-03-05T21:28:28.095Z,80.70
2019-03-05T21:30:58.834Z,80.80
2019-03-05T21:33:29.468Z,81.10
2019-03-05T21:36:01.989Z,81.50
2019-03-05T21:38:32.551Z,81.50
2019-03-05T21:41:03.154Z,81.60
2019-03-05T21:43:34.059Z,81.30
2019-03-05T21:46:08.644Z,81.50
2019-03-05T21:48:39.253Z,81.60
2019-03-05T21:51:09.883Z,82.00
2019-03-05T21:53:40.962Z,82.00
2019-03-05T21:56:12.532Z,82.20
2019-03-05T21:58:43.130Z,82.40
2019-03-05T22:01:13.676Z,82.40
2019-03-05T22:03:44.281Z,82.40
2019-03-05T22:06:14.931Z,82.60
2019-03-05T22:08:45.516Z,82.60
2019-03-05T22:11:16.053Z,82.80
2019-03-05T22:13:46.540Z,83.10
2019-03-05T22:16:17.231Z,83.40
2019-03-05T22:18:47.799Z,83.70
2019-03-05T22:21:18.414Z,83.90
2019-03-05T22:23:49.188Z,84.10
2019-03-05T22:26:19.903Z,84.20
2019-03-05T22:28:50.560Z,84.80
2019-03-05T22:31:21.129Z,84.90
2019-03-05T22:33:52.162Z,84.60
2019-03-05T22:36:22.731Z,84.90
2019-03-05T22:38:53.267Z,84.70
2019-03-05T22:41:23.824Z,84.90
2019-03-05T22:43:54.586Z,85.30
2019-03-05T22:46:25.241Z,85.40
2019-03-05T22:48:56.096Z,85.50
2019-03-05T22:51:26.656Z,85.70
2019-03-05T22:53:57.281Z,85.80
2019-03-05T22:56:27.983Z,86.00
2019-03-05T22:58:58.698Z,86.10
2019-03-05T23:01:38.222Z,85.90
2019-03-05T23:04:09.908Z,86.60
2019-03-05T23:06:42.384Z,86.80
2019-03-05T23:09:19.234Z,86.80
2019-03-05T23:11:50.019Z,86.60
2019-03-05T23:14:20.705Z,87.20
2019-03-05T23:16:51.979Z,87.30
2019-03-05T23:19:23.211Z,87.40
2019-03-05T23:21:53.989Z,87.70
2019-03-05T23:24:24.697Z,88.10
2019-03-05T23:26:55.310Z,87.90
2019-03-05T23:29:33.581Z,87.60
2019-03-05T23:32:05.009Z,87.30
2019-03-05T23:34:35.897Z,86.90
2019-03-05T23:37:07.636Z,86.70
2019-03-05T23:39:38.428Z,86.90
2019-03-05T23:42:09.136Z,86.80
2019-03-05T23:44:42.611Z,87.10
2019-03-05T23:47:13.432Z,87.50
2019-03-05T23:49:43.987Z,87.80
2019-03-05T23:52:14.784Z,87.90
2019-03-05T23:54:45.406Z,88.00
2019-03-05T23:57:16.171Z,87.50
2019-03-05T23:59:46.805Z,87.60
